Time;durP1;ratioP1;P1;durP2;ratioP2;P2;SDS_P1;SDS_P2;PMS_P1;PMS_P2;Temp;Humidity;BMP_temperature;BMP_pressure;BME280_temperature;BME280_humidity;BME280_pressure;Samples;Min_cycle;Max_cycle;Signal;HPM_P1;HPM_P2
2022/03/19 00:02:46;;;;;;;17.67;8.48;;;;;;;-5.96;73.18;102586.02;1754630;82;21802;-84
2022/03/19 00:05:51;;;;;;;18.77;8.28;;;;;;;-6.04;73.50;102585.20;1754673;82;21751;-77
2022/03/19 00:08:58;;;;;;;20.15;10.13;;;;;;;-6.13;73.77;102588.41;1754740;82;21170;-82
2022/03/19 00:12:04;;;;;;;19.87;8.63;;;;;;;-6.22;73.96;102588.91;1753237;82;21213;-83
2022/03/19 00:15:11;;;;;;;17.32;9.00;;;;;;;-6.29;74.16;102589.89;1754632;82;21214;-83
2022/03/19 00:18:16;;;;;;;22.07;9.05;;;;;;;-6.35;74.37;102583.30;1757636;80;21735;-78
2022/03/19 00:21:21;;;;;;;17.45;8.83;;;;;;;-6.38;74.64;102587.75;1761235;81;21150;-77
2022/03/19 00:24:26;;;;;;;26.65;9.68;;;;;;;-6.45;74.83;102581.58;1761323;81;21260;-83
2022/03/19 00:27:31;;;;;;;18.73;8.83;;;;;;;-6.51;75.06;102584.30;1761292;81;21203;-77
2022/03/19 00:30:31;;;;;;;18.57;8.63;;;;;;;-6.55;75.23;102575.89;1761371;81;21169;-79
2022/03/19 00:33:36;;;;;;;16.70;7.53;;;;;;;-6.58;75.24;102578.16;1761306;81;21174;-77
2022/03/19 00:36:42;;;;;;;18.10;8.90;;;;;;;-6.59;75.27;102580.80;1761274;81;21210;-83
2022/03/19 00:39:48;;;;;;;21.02;8.90;;;;;;;-6.61;75.32;102571.95;1761401;81;21156;-83
2022/03/19 00:42:55;;;;;;;16.52;8.88;;;;;;;-6.64;75.37;102570.19;1761259;81;21830;-77
2022/03/19 00:46:01;;;;;;;20.40;8.95;;;;;;;-6.67;75.40;102565.36;1759703;81;21209;-82
2022/03/19 00:49:08;;;;;;;19.42;9.18;;;;;;;-6.71;75.46;102559.17;1759724;81;21201;-82
2022/03/19 00:52:14;;;;;;;23.05;9.05;;;;;;;-6.76;75.70;102550.34;1760570;81;21229;-76
2022/03/19 00:55:21;;;;;;;18.02;9.20;;;;;;;-6.80;75.81;102543.27;1761179;81;21190;-79
2022/03/19 00:58:26;;;;;;;22.62;9.63;;;;;;;-6.83;75.78;102542.83;1759745;81;21798;-84
2022/03/19 01:01:34;;;;;;;17.48;9.55;;;;;;;-6.84;75.76;102542.84;1759564;80;21196;-82
2022/03/19 01:04:33;;;;;;;22.82;10.05;;;;;;;-6.87;75.82;102546.85;1761136;81;21165;-82
2022/03/19 01:07:27;;;;;;;19.48;10.10;;;;;;;-6.88;75.85;102546.42;1759569;81;21192;-76
2022/03/19 01:10:35;;;;;;;18.98;9.35;;;;;;;-6.88;75.77;102556.61;1759874;81;21176;-83
2022/03/19 01:13:40;;;;;;;27.17;10.98;;;;;;;-6.89;75.58;102552.20;1761337;81;21285;-83
2022/03/19 01:16:46;;;;;;;20.60;10.18;;;;;;;-6.86;75.46;102560.17;1759958;81;21205;-77
2022/03/19 01:19:54;;;;;;;19.32;9.50;;;;;;;-6.85;75.19;102547.29;1755294;81;21190;-76
2022/03/19 01:23:00;;;;;;;23.27;9.68;;;;;;;-6.84;74.94;102562.36;1753298;82;21715;-77
2022/03/19 01:26:05;;;;;;;22.30;10.08;;;;;;;-6.85;74.68;102563.71;1754575;82;21190;-77
2022/03/19 01:29:11;;;;;;;24.65;10.48;;;;;;;-6.88;74.56;102573.03;1754580;82;21178;-83
2022/03/19 01:32:17;;;;;;;24.40;10.35;;;;;;;-6.90;74.50;102566.85;1754682;82;21229;-77
2022/03/19 01:35:24;;;;;;;19.32;10.10;;;;;;;-6.91;74.41;102567.75;1753275;82;21162;-83
2022/03/19 01:38:30;;;;;;;21.82;10.38;;;;;;;-6.90;74.30;102574.84;1754223;82;21734;-76
2022/03/19 01:41:36;;;;;;;25.12;9.95;;;;;;;-6.90;74.31;102572.17;1754520;82;21197;-77
2022/03/19 01:44:41;;;;;;;19.85;10.43;;;;;;;-6.87;74.18;102573.46;1754437;82;21758;-83
2022/03/19 01:47:50;;;;;;;19.82;10.20;;;;;;;-6.90;73.93;102569.06;1753557;82;21245;-83
2022/03/19 01:50:55;;;;;;;;;;;;;;;-6.96;73.89;102564.67;1757142;82;21174;-76
2022/03/19 01:54:00;;;;;;;19.52;10.28;;;;;;;-7.00;73.81;102568.24;1704678;84;20256;-77
2022/03/19 01:57:00;;;;;;;20.15;10.45;;;;;;;-7.02;73.78;102573.13;1757240;81;21193;-83
2022/03/19 02:00:06;;;;;;;22.77;10.70;;;;;;;-7.04;73.77;102585.56;1753111;80;21730;-83
2022/03/19 02:03:12;;;;;;;23.80;11.25;;;;;;;-7.03;73.52;102587.33;1753214;82;21233;-76
2022/03/19 02:06:17;;;;;;;25.90;11.78;;;;;;;-7.10;73.25;102585.16;1754592;82;21166;-76
2022/03/19 02:09:25;;;;;;;23.27;12.68;;;;;;;-7.13;73.35;102585.16;1753591;82;21747;-76
2022/03/19 02:12:31;;;;;;;22.25;10.55;;;;;;;-7.13;73.44;102588.27;1754539;82;21759;-82
2022/03/19 02:15:36;;;;;;;22.55;9.93;;;;;;;-7.14;73.36;102590.05;1754551;82;21739;-76
2022/03/19 02:18:42;;;;;;;28.65;11.97;;;;;;;-7.14;73.25;102587.39;1754558;82;21751;-82
2022/03/19 02:21:54;;;;;;;23.22;12.28;;;;;;;-7.15;73.20;102590.95;1706118;84;21801;-76
2022/03/19 02:28:20;;;;;;;20.68;11.12;;;;;;;-7.14;73.08;102586.06;1736787;82;21223;-77
2022/03/19 02:31:26;;;;;;;20.77;9.70;;;;;;;-7.17;72.99;102589.17;1736631;82;21200;-76
2022/03/19 02:34:33;;;;;;;21.12;10.38;;;;;;;-7.25;72.92;102583.44;1736708;82;21144;-76
2022/03/19 02:37:49;;;;;;;25.57;10.75;;;;;;;-7.28;73.03;102586.58;1736696;82;21801;-82
2022/03/19 02:40:55;;;;;;;21.60;10.58;;;;;;;-7.27;73.14;102591.00;1736367;82;21756;-82
2022/03/19 02:44:01;;;;;;;18.70;10.75;;;;;;;-7.29;73.19;102588.77;1736677;82;21148;-82
2022/03/19 02:47:10;;;;;;;22.50;10.15;;;;;;;-7.30;73.17;102598.53;1736688;82;21203;-76
2022/03/19 02:50:16;;;;;;;26.17;11.08;;;;;;;-7.32;73.07;102596.79;1736650;82;21243;-81
2022/03/19 02:53:23;;;;;;;22.98;10.80;;;;;;;-7.34;72.98;102599.87;1735133;82;21219;-81
2022/03/19 02:56:29;;;;;;;17.70;10.03;;;;;;;-7.34;73.08;102598.55;1736651;82;21761;-76
2022/03/19 02:59:37;;;;;;;26.12;11.15;;;;;;;-7.37;72.83;102601.25;1736735;82;21172;-82
2022/03/19 03:02:42;;;;;;;24.00;11.05;;;;;;;-7.49;72.96;102598.17;1736680;82;21233;-76
2022/03/19 03:05:49;;;;;;;21.93;10.48;;;;;;;-7.56;73.04;102603.09;1735309;82;21178;-76
2022/03/19 03:08:54;;;;;;;20.77;10.20;;;;;;;-7.62;73.22;102599.10;1736690;82;21220;-82
2022/03/19 03:12:01;;;;;;;19.10;9.83;;;;;;;-7.67;73.33;102602.22;1736647;82;21227;-82
2022/03/19 03:15:07;;;;;;;23.00;10.23;;;;;;;-7.78;73.60;102599.60;1736677;82;21168;-76
2022/03/19 03:18:13;;;;;;;25.23;11.20;;;;;;;-7.86;73.89;102601.38;1736634;82;21207;-76
2022/03/19 03:21:19;;;;;;;19.02;9.85;;;;;;;-7.90;74.16;102596.96;1750226;81;21228;-82
2022/03/19 03:24:26;;;;;;;24.82;10.28;;;;;;;-7.93;74.42;102596.98;1766615;81;21161;-77
2022/03/19 03:27:33;;;;;;;22.82;11.57;;;;;;;-7.95;74.64;102593.44;1763102;81;21245;-82
2022/03/19 03:30:39;;;;;;;25.35;11.33;;;;;;;-7.94;74.81;102596.11;1765861;81;21197;-82
2022/03/19 03:33:45;;;;;;;25.48;10.38;;;;;;;-7.93;74.93;102595.22;1763964;81;21190;-82
2022/03/19 03:36:51;;;;;;;18.48;11.03;;;;;;;-7.94;75.00;102595.23;1766369;81;21205;-76
2022/03/19 03:39:57;;;;;;;24.57;11.08;;;;;;;-7.96;75.15;102593.88;1763570;81;21311;-82
2022/03/19 03:43:03;;;;;;;19.90;10.63;;;;;;;-7.98;75.30;102594.34;1765280;80;21216;-82
2022/03/19 03:46:10;;;;;;;21.37;10.58;;;;;;;-8.02;75.45;102589.47;1762477;81;21225;-76
2022/03/19 03:49:17;;;;;;;21.97;10.38;;;;;;;-8.07;75.80;102600.55;1765206;81;21171;-82
2022/03/19 03:52:23;;;;;;;19.42;10.05;;;;;;;-8.15;76.17;102598.34;1763155;81;21853;-77
2022/03/19 03:55:23;;;;;;;30.80;10.55;;;;;;;-8.18;76.57;102602.34;1766619;81;21244;-82
2022/03/19 03:58:30;;;;;;;21.02;9.68;;;;;;;-8.25;77.03;102613.40;1764053;81;21177;-82
2022/03/19 04:01:37;;;;;;;18.37;9.45;;;;;;;-8.27;77.41;102611.20;1743242;81;21209;-76
2022/03/19 04:04:44;;;;;;;22.58;10.03;;;;;;;-8.30;77.75;102615.17;1765327;81;21766;-76
2022/03/19 04:07:50;;;;;;;20.60;10.35;;;;;;;-8.29;78.08;102621.36;1762545;81;21236;-82
2022/03/19 04:10:55;;;;;;;20.35;11.08;;;;;;;-8.27;78.33;102628.46;1766368;81;21735;-76
2022/03/19 04:14:01;;;;;;;16.30;9.60;;;;;;;-8.22;78.58;102632.44;1763994;81;21754;-76
2022/03/19 04:17:07;;;;;;;18.32;9.58;;;;;;;-8.16;78.79;102632.42;1766809;81;21204;-76
2022/03/19 04:20:13;;;;;;;21.37;9.63;;;;;;;-8.12;79.02;102624.91;1764010;81;21747;-76
2022/03/19 04:23:20;;;;;;;18.42;9.78;;;;;;;-8.04;79.33;102622.25;1761244;81;21217;-77
2022/03/19 04:26:26;;;;;;;19.37;10.75;;;;;;;-8.00;79.59;102630.63;1761210;81;21209;-82
2022/03/19 04:29:32;;;;;;;21.65;10.15;;;;;;;-7.94;79.89;102627.11;1761313;81;21506;-76
2022/03/19 04:32:38;;;;;;;23.20;9.93;;;;;;;-7.85;80.05;102625.77;1761298;81;21209;-82
2022/03/19 04:39:08;;;;;;;25.35;11.40;;;;;;;-7.66;80.20;102630.14;1761385;81;21166;-75
2022/03/19 04:42:13;;;;;;;21.82;10.85;;;;;;;-7.55;80.10;102634.09;1760502;81;21189;-77
2022/03/19 04:45:20;;;;;;;19.07;10.50;;;;;;;-7.46;79.84;102631.41;1759853;81;21204;-76
2022/03/19 04:48:27;;;;;;;22.45;10.75;;;;;;;-7.36;79.64;102640.23;1761304;81;21201;-82
2022/03/19 04:51:41;;;;;;;23.85;10.32;;;;;;;-7.25;79.38;102649.04;1759771;81;21185;-82
2022/03/19 04:54:47;;;;;;;23.75;10.70;;;;;;;-7.17;78.98;102648.58;1761356;81;21205;-82
2022/03/19 04:57:55;;;;;;;18.65;10.72;;;;;;;-7.06;78.81;102649.84;1761196;81;21186;-76
2022/03/19 05:01:02;;;;;;;17.25;9.65;;;;;;;-6.96;78.42;102651.15;1759711;81;21770;-76
2022/03/19 05:04:08;;;;;;;19.00;10.85;;;;;;;-6.84;78.14;102647.97;1759748;81;21177;-76
2022/03/19 05:07:07;;;;;;;20.52;11.03;;;;;;;-6.72;77.90;102650.58;1761328;81;21185;-76
2022/03/19 05:13:04;;;;;;;18.48;9.90;;;;;;;-6.50;76.64;102658.83;1761268;81;21213;-77
2022/03/19 05:15:56;;;;;;;18.82;10.05;;;;;;;-6.37;76.31;102655.64;1761317;81;21195;-82
2022/03/19 05:19:05;;;;;;;23.07;10.58;;;;;;;-6.24;75.85;102660.44;1761376;81;21193;-82
2022/03/19 05:22:10;;;;;;;20.12;9.75;;;;;;;-6.13;74.99;102666.55;1759952;81;21212;-82
2022/03/19 05:25:16;;;;;;;17.92;9.08;;;;;;;-6.05;74.44;102660.72;1759852;81;21168;-83
2022/03/19 05:28:21;;;;;;;17.17;9.33;;;;;;;-5.92;74.28;102661.50;1729323;81;21889;-76
2022/03/19 05:31:26;;;;;;;24.23;10.95;;;;;;;-5.80;73.52;102671.11;1759809;79;21216;-82
2022/03/19 05:34:34;;;;;;;20.43;9.88;;;;;;;-5.71;73.26;102674.57;1759902;80;21165;-76
2022/03/19 05:37:40;;;;;;;26.68;10.25;;;;;;;-5.60;72.52;102677.13;1759740;81;21204;-76
2022/03/19 05:40:45;;;;;;;20.50;8.75;;;;;;;-5.51;71.49;102669.48;1737073;81;21696;-83
2022/03/19 05:43:50;;;;;;;19.30;8.93;;;;;;;-5.42;71.81;102674.27;1761184;81;21186;-76
2022/03/19 05:47:00;;;;;;;17.10;8.70;;;;;;;-5.30;70.97;102670.59;1761375;81;21201;-77
2022/03/19 05:50:07;;;;;;;15.63;8.08;;;;;;;-5.22;70.15;102675.40;1761400;81;21165;-76
2022/03/19 05:53:13;;;;;;;19.25;7.75;;;;;;;-5.12;69.94;102677.50;1759748;81;21715;-82
2022/03/19 05:56:19;;;;;;;12.68;7.58;;;;;;;-4.95;69.69;102673.27;1761318;81;21161;-83
2022/03/19 05:59:24;;;;;;;20.82;8.95;;;;;;;-4.82;68.07;102681.55;1761157;81;21210;-76
2022/03/19 06:02:29;;;;;;;14.23;8.33;;;;;;;-4.71;67.14;102677.39;1761280;81;21237;-83
2022/03/19 06:05:35;;;;;;;15.65;8.38;;;;;;;-4.65;66.30;102686.68;1760938;81;21161;-76
2022/03/19 06:08:40;;;;;;;15.28;7.60;;;;;;;-4.55;66.83;102682.09;1759924;81;21225;-76
2022/03/19 06:11:47;;;;;;;19.20;9.13;;;;;;;-4.42;65.50;102691.70;1759961;81;21210;-76
2022/03/19 06:14:53;;;;;;;16.85;8.40;;;;;;;-4.33;65.44;102691.98;1759990;81;21192;-83
2022/03/19 06:17:59;;;;;;;17.12;8.60;;;;;;;-4.23;64.01;102698.53;1760045;80;21197;-77
2022/03/19 06:21:05;;;;;;;14.78;7.42;;;;;;;-4.15;63.96;102684.56;1761339;81;21166;-76
2022/03/19 06:24:10;;;;;;;15.98;8.43;;;;;;;-4.01;63.83;102683.46;1761434;81;21747;-83
2022/03/19 06:27:16;;;;;;;16.85;8.08;;;;;;;-3.83;62.62;102684.95;1761344;81;21233;-77
2022/03/19 06:30:23;;;;;;;14.15;8.08;;;;;;;-3.72;60.61;102685.62;1761448;81;21193;-78
2022/03/19 06:33:30;;;;;;;12.88;7.50;;;;;;;-3.66;60.46;102678.86;1761398;81;21190;-83
2022/03/19 06:40:06;;;;;;;13.70;7.20;;;;;;;-3.48;59.54;102685.21;1761350;81;21671;-83
2022/03/19 06:43:08;;;;;;;13.45;6.85;;;;;;;-3.44;58.24;102675.30;1761216;81;21834;-76
2022/03/19 06:46:13;;;;;;;29.10;8.13;;;;;;;-3.40;58.49;102683.25;1761220;81;21146;-83
2022/03/19 06:49:20;;;;;;;11.10;6.62;;;;;;;-3.29;58.53;102680.39;1761388;81;21162;-83
2022/03/19 06:52:28;;;;;;;18.82;6.80;;;;;;;-3.17;57.91;102687.28;1761188;81;21472;-77
2022/03/19 06:55:34;;;;;;;16.42;7.67;;;;;;;-3.10;57.18;102679.56;1761499;81;21169;-77
2022/03/19 06:58:41;;;;;;;13.30;7.17;;;;;;;-3.04;57.56;102676.75;1761263;81;21202;-83
2022/03/19 07:01:47;;;;;;;15.45;7.65;;;;;;;-2.93;56.91;102672.50;1761346;81;21197;-76
2022/03/19 07:04:54;;;;;;;17.50;7.10;;;;;;;-2.78;56.39;102677.52;1761166;81;21154;-83
2022/03/19 07:07:59;;;;;;;22.95;7.03;;;;;;;-2.62;55.94;102682.11;1759953;81;21750;-76
2022/03/19 07:11:04;;;;;;;14.38;7.50;;;;;;;-2.56;54.73;102676.59;1761198;81;22121;-83
2022/03/19 07:14:09;;;;;;;11.55;6.20;;;;;;;-2.45;55.03;102675.00;1760820;81;21196;-77
2022/03/19 07:17:15;;;;;;;13.53;6.47;;;;;;;-2.39;53.74;102685.61;1761300;81;21229;-83
2022/03/19 07:20:21;;;;;;;18.73;6.90;;;;;;;-2.44;52.66;102688.39;1761277;81;21213;-83
2022/03/19 07:23:26;;;;;;;10.05;6.15;;;;;;;-2.49;52.51;102678.67;1761268;81;21229;-76
2022/03/19 07:26:36;;;;;;;16.00;6.10;;;;;;;-2.49;52.22;102671.97;1755804;81;21209;-76
2022/03/19 07:29:39;;;;;;;11.33;6.50;;;;;;;-2.46;52.26;102671.91;1754403;82;21822;-77
2022/03/19 07:32:45;;;;;;;12.55;6.45;;;;;;;-2.42;52.22;102676.28;1754612;82;21678;-83
2022/03/19 07:35:52;;;;;;;11.43;6.67;;;;;;;-2.36;52.58;102660.92;1754658;82;21261;-77
2022/03/19 07:38:51;;;;;;;14.83;6.28;;;;;;;-2.23;52.09;102653.94;1754800;82;21158;-83
2022/03/19 07:41:56;;;;;;;12.75;6.97;;;;;;;-2.14;51.85;102645.67;1754529;82;21205;-83
2022/03/19 07:45:05;;;;;;;12.23;6.65;;;;;;;-2.08;51.90;102650.41;1753177;82;21214;-77
2022/03/19 07:48:12;;;;;;;10.80;5.55;;;;;;;-1.99;51.86;102645.74;1754156;82;21231;-76
2022/03/19 07:51:19;;;;;;;10.82;6.03;;;;;;;-1.91;51.59;102637.92;1753994;82;21162;-83
2022/03/19 07:54:27;;;;;;;14.15;8.28;;;;;;;-1.78;51.06;102643.86;1753787;82;21253;-76
2022/03/19 07:57:31;;;;;;;10.35;6.78;;;;;;;-1.72;51.31;102634.77;1767331;80;21157;-76
2022/03/19 08:00:38;;;;;;;10.72;6.83;;;;;;;-1.58;51.35;102632.59;1785075;80;21781;-83
2022/03/19 08:03:46;;;;;;;12.93;6.50;;;;;;;-1.45;50.38;102650.13;1785636;80;21153;-81
2022/03/19 08:06:55;;;;;;;15.55;7.17;;;;;;;-1.35;49.52;102635.52;1785367;80;21192;-76
2022/03/19 08:10:01;;;;;;;9.75;6.47;;;;;;;-1.25;49.01;102647.34;1785482;80;21156;-82
2022/03/19 08:13:11;;;;;;;14.95;6.67;;;;;;;-1.18;48.32;102633.67;1785536;80;21204;-83
2022/03/19 08:16:17;;;;;;;12.75;7.03;;;;;;;-1.13;47.45;102643.84;1785498;80;21188;-81
2022/03/19 08:19:25;;;;;;;14.23;5.83;;;;;;;-1.06;47.00;102651.25;1785431;80;21157;-76
2022/03/19 08:22:32;;;;;;;9.15;5.12;;;;;;;-0.98;46.64;102651.91;1784629;80;21200;-82
2022/03/19 08:25:38;;;;;;;10.28;6.20;;;;;;;-0.90;45.55;102651.20;1785631;80;21137;-83
2022/03/19 08:28:44;;;;;;;8.98;5.70;;;;;;;-0.88;44.67;102639.96;1795703;80;21192;-76
2022/03/19 08:31:51;;;;;;;9.28;5.65;;;;;;;-0.85;45.05;102631.81;1795554;80;21180;-77
2022/03/19 08:34:57;;;;;;;22.30;5.72;;;;;;;-0.74;44.45;102634.64;1795607;80;21527;-82
2022/03/19 08:41:35;;;;;;;18.92;6.00;;;;;;;-0.60;43.65;102626.55;1777328;80;21179;-78
2022/03/19 08:44:41;;;;;;;11.43;5.72;;;;;;;-0.44;43.35;102636.34;1781261;80;21755;-78
2022/03/19 08:47:47;;;;;;;16.87;6.28;;;;;;;-0.40;42.12;102632.63;1798780;79;21232;-78
2022/03/19 08:50:53;;;;;;;13.40;5.65;;;;;;;-0.47;42.44;102618.98;1781364;80;21240;-78
2022/03/19 08:53:59;;;;;;;7.37;4.87;;;;;;;-0.53;41.97;102611.09;1781438;80;21224;-78
2022/03/19 08:57:05;;;;;;;12.95;5.87;;;;;;;-0.52;41.73;102631.23;1781024;80;21221;-78
2022/03/19 09:00:14;;;;;;;9.70;5.95;;;;;;;-0.46;42.45;102621.21;1781041;80;21192;-78
2022/03/19 09:03:22;;;;;;;16.90;5.53;;;;;;;-0.35;42.46;102622.61;1779874;80;21763;-78
2022/03/19 09:06:17;;;;;;;10.93;5.97;;;;;;;-0.30;41.23;102621.98;1750115;82;21198;-77
2022/03/19 09:09:22;;;;;;;18.20;6.55;;;;;;;-0.31;41.79;102624.27;1749686;82;21249;-78
2022/03/19 09:12:32;;;;;;;16.17;6.17;;;;;;;-0.26;41.35;102615.58;1748547;82;21194;-78
2022/03/19 09:15:40;;;;;;;13.90;5.12;;;;;;;-0.19;41.60;102629.69;1750298;82;21238;-78
2022/03/19 09:18:46;;;;;;;13.95;6.50;;;;;;;-0.11;39.41;102611.97;1720166;83;21188;-78
2022/03/19 09:21:53;;;;;;;24.43;6.17;;;;;;;-0.07;40.91;102613.16;1719146;83;21208;-78
2022/03/19 09:24:59;;;;;;;10.20;6.15;;;;;;;0.08;40.54;102609.05;1736408;82;21339;-78
2022/03/19 09:28:05;;;;;;;18.40;8.15;;;;;;;0.18;39.68;102601.07;1735651;82;21241;-77
2022/03/19 09:31:11;;;;;;;11.80;5.65;;;;;;;0.21;39.67;102601.44;1736306;82;21177;-77
2022/03/19 09:34:17;;;;;;;14.20;5.72;;;;;;;0.27;39.58;102610.64;1735274;82;21182;-77
2022/03/19 09:37:24;;;;;;;18.05;6.60;;;;;;;0.27;38.24;102607.95;1731008;82;21214;-77
2022/03/19 09:40:31;;;;;;;14.30;6.17;;;;;;;0.23;39.56;102608.98;1771139;81;21244;-78
2022/03/19 09:43:37;;;;;;;10.08;5.92;;;;;;;0.31;39.57;102605.56;1761991;81;21185;-78
2022/03/19 09:46:46;;;;;;;9.53;5.90;;;;;;;0.47;38.57;102610.83;1771581;81;21183;-78
2022/03/19 09:49:51;;;;;;;14.68;5.35;;;;;;;0.55;37.81;102615.91;1769180;79;21198;-78
2022/03/19 09:53:02;;;;;;;10.65;6.10;;;;;;;0.51;38.32;102595.41;1768150;81;21345;-78
2022/03/19 09:56:06;;;;;;;;;;;;;;;0.59;38.41;102609.48;1771566;81;21210;-78
2022/03/19 09:59:13;;;;;;;8.18;4.87;;;;;;;0.74;38.09;102612.95;1768134;81;20254;-78
2022/03/19 10:02:19;;;;;;;13.10;5.45;;;;;;;0.76;37.06;102611.56;1769092;81;21249;-78
2022/03/19 10:09:02;;;;;;;11.45;4.75;;;;;;;0.67;36.41;102595.28;1768875;81;21233;-77
2022/03/19 10:12:08;;;;;;;11.85;5.30;;;;;;;0.67;36.79;102596.63;1770097;81;21254;-77
2022/03/19 10:15:14;;;;;;;8.90;5.35;;;;;;;0.80;36.33;102595.70;1735384;81;21297;-77
2022/03/19 10:18:20;;;;;;;12.53;5.53;;;;;;;0.94;36.12;102593.80;1769946;81;21206;-78
2022/03/19 10:21:26;;;;;;;11.63;5.47;;;;;;;0.99;35.51;102583.75;1769634;81;21194;-77
2022/03/19 10:24:34;;;;;;;13.10;5.25;;;;;;;0.99;36.01;102591.84;1769743;81;21269;-78
2022/03/19 10:27:46;;;;;;;9.93;5.17;;;;;;;1.05;35.48;102571.38;1770805;81;21744;-77
2022/03/19 10:30:52;;;;;;;17.12;5.78;;;;;;;1.13;34.73;102585.87;1770835;81;21170;-78
2022/03/19 10:33:59;;;;;;;11.33;5.33;;;;;;;1.16;35.11;102585.77;1771044;81;21199;-78
2022/03/19 10:37:05;;;;;;;7.72;4.37;;;;;;;1.22;33.99;102568.91;1771111;81;21181;-78
2022/03/19 10:40:13;;;;;;;17.00;5.35;;;;;;;1.30;34.63;102575.79;1768004;80;22440;-78
2022/03/19 10:43:22;;;;;;;10.50;4.97;;;;;;;1.42;34.49;102574.83;1770706;81;21188;-78
2022/03/19 10:46:27;;;;;;;10.35;5.10;;;;;;;1.52;34.00;102580.25;1770467;81;21197;-78
2022/03/19 10:49:35;;;;;;;9.73;4.72;;;;;;;1.54;33.88;102572.96;1768834;81;21197;-77
2022/03/19 10:52:43;;;;;;;15.23;4.37;;;;;;;1.61;33.52;102581.70;1770808;81;21240;-78
2022/03/19 10:55:50;;;;;;;7.53;4.62;;;;;;;1.64;32.84;102565.36;1770915;81;21181;-79
2022/03/19 10:58:57;;;;;;;7.55;4.70;;;;;;;1.71;33.14;102553.87;1769892;81;21875;-78
2022/03/19 11:02:03;;;;;;;7.72;4.00;;;;;;;1.77;32.38;102546.38;1770453;81;21240;-78
2022/03/19 11:05:10;;;;;;;11.40;4.35;;;;;;;1.79;31.70;102558.47;1771134;81;21236;-79
2022/03/19 11:08:16;;;;;;;7.20;4.00;;;;;;;1.76;30.92;102541.93;1770888;81;21759;-79
2022/03/19 11:11:28;;;;;;;10.30;4.33;;;;;;;1.74;30.84;102542.92;1769943;81;21771;-79
2022/03/19 11:14:35;;;;;;;8.23;4.45;;;;;;;1.74;30.94;102540.22;1771066;81;21778;-78
2022/03/19 11:17:40;;;;;;;10.38;3.35;;;;;;;1.77;30.69;102527.48;1771075;81;21169;-78
2022/03/19 11:20:46;;;;;;;8.58;4.00;;;;;;;1.83;30.36;102539.83;1771109;81;21867;-78
2022/03/19 11:24:07;;;;;;;9.95;4.60;;;;;;;1.93;29.66;102526.81;1753662;81;21208;-77
2022/03/19 11:27:12;;;;;;;7.33;4.40;;;;;;;2.00;30.34;102537.29;1770892;81;21603;-78
2022/03/19 11:30:30;;;;;;;7.70;4.58;;;;;;;2.12;30.41;102545.78;1769350;81;21771;-79
2022/03/19 11:33:36;;;;;;;7.92;4.55;;;;;;;2.17;29.82;102543.78;1769681;81;21189;-79
2022/03/19 11:37:02;;;;;;;7.28;4.00;;;;;;;2.14;29.01;102543.44;1770476;81;21799;-77
2022/03/19 11:40:14;;;;;;;10.50;4.37;;;;;;;2.13;28.82;102522.78;1769128;80;21256;-78
2022/03/19 11:43:35;;;;;;;7.22;4.42;;;;;;;2.20;29.18;102518.85;1768721;81;21189;-78
2022/03/19 11:47:11;;;;;;;10.00;3.47;;;;;;;2.28;29.19;102524.80;1769467;81;21201;-77
2022/03/19 11:50:29;;;;;;;8.28;4.87;;;;;;;2.30;27.77;102512.08;1770728;81;21673;-78
2022/03/19 11:53:34;;;;;;;7.75;3.85;;;;;;;2.29;27.23;102521.62;1757291;81;21173;-78
2022/03/19 11:56:53;;;;;;;5.97;3.85;;;;;;;2.29;27.80;102517.09;1770431;81;21914;-79
2022/03/19 11:59:58;;;;;;;8.73;4.47;;;;;;;2.37;28.13;102525.34;1770136;81;21244;-78
2022/03/19 12:03:25;;;;;;;7.62;3.90;;;;;;;2.43;27.88;102524.57;1728385;81;21212;-77
2022/03/19 12:06:39;;;;;;;9.83;3.70;;;;;;;2.47;27.80;102511.80;1770719;81;21212;-78
2022/03/19 12:09:58;;;;;;;9.23;3.45;;;;;;;2.54;26.46;102517.31;1770478;81;21209;-78
2022/03/19 12:13:06;;;;;;;9.98;3.40;;;;;;;2.56;26.64;102506.85;1768554;81;21209;-78
2022/03/19 12:16:16;;;;;;;6.70;3.50;;;;;;;2.58;26.35;102482.45;1770384;81;21755;-78
2022/03/19 12:19:23;;;;;;;5.62;3.80;;;;;;;2.64;27.25;102501.10;1770096;81;21233;-78
2022/03/19 12:22:38;;;;;;;13.18;4.70;;;;;;;2.70;26.48;102496.75;1752614;81;21189;-78
2022/03/19 12:25:43;;;;;;;26.17;4.12;;;;;;;2.68;25.78;102498.66;1770075;81;22053;-78
2022/03/19 12:28:48;;;;;;;7.92;3.98;;;;;;;2.65;25.29;102484.41;1770892;81;21763;-78
2022/03/19 12:31:57;;;;;;;6.05;3.60;;;;;;;2.58;25.60;102482.45;1770957;81;21367;-77
2022/03/19 12:35:08;;;;;;;7.15;4.37;;;;;;;2.55;25.71;102483.97;1769590;81;21185;-78
2022/03/19 12:38:13;;;;;;;6.85;4.25;;;;;;;2.59;25.99;102486.94;1771064;81;21169;-78
2022/03/19 12:41:30;;;;;;;12.23;5.67;;;;;;;2.58;26.62;102494.61;1768211;81;21751;-78
2022/03/19 12:44:40;;;;;;;7.60;3.25;;;;;;;2.60;26.13;102485.11;1770551;81;21241;-78
2022/03/19 12:47:47;;;;;;;6.67;3.72;;;;;;;2.64;25.65;102488.94;1771049;81;21165;-78
2022/03/19 12:51:03;;;;;;;12.45;4.10;;;;;;;2.61;25.74;102476.92;1770038;81;21768;-77
2022/03/19 12:54:08;;;;;;;7.92;4.42;;;;;;;2.60;26.96;102469.77;1770899;81;21232;-77
2022/03/19 12:57:12;;;;;;;5.45;3.67;;;;;;;2.67;26.43;102475.27;1769914;81;21272;-78
2022/03/19 13:00:07;;;;;;;5.85;4.08;;;;;;;2.71;26.34;102466.06;1770692;81;21224;-77
2022/03/19 13:03:14;;;;;;;15.30;4.00;;;;;;;2.71;25.87;102464.72;1770117;81;21220;-77
2022/03/19 13:06:20;;;;;;;9.25;3.95;;;;;;;2.75;26.04;102473.08;1771078;81;21712;-77
2022/03/19 13:09:42;;;;;;;8.60;4.53;;;;;;;2.78;25.70;102477.00;1769583;81;21744;-77
2022/03/19 13:12:51;;;;;;;6.30;3.20;;;;;;;2.76;25.47;102485.64;1771106;81;21358;-78
2022/03/19 13:16:00;;;;;;;5.90;3.22;;;;;;;2.77;25.00;102486.03;1771027;81;21502;-78
2022/03/19 13:19:13;;;;;;;5.97;3.58;;;;;;;2.73;25.00;102477.70;1771068;81;21185;-78
2022/03/19 13:22:21;;;;;;;6.53;3.47;;;;;;;2.70;24.82;102488.64;1771479;81;21189;-78
2022/03/19 13:25:28;;;;;;;10.50;3.37;;;;;;;2.71;24.58;102471.95;1771452;81;21410;-78
2022/03/19 13:28:34;;;;;;;11.08;3.80;;;;;;;2.73;24.82;102483.55;1754337;81;21718;-78
2022/03/19 13:31:53;;;;;;;5.58;3.02;;;;;;;2.72;24.06;102465.59;1770089;81;21202;-79
2022/03/19 13:35:00;;;;;;;5.72;3.40;;;;;;;2.67;25.20;102464.45;1769150;81;21221;-80
2022/03/19 13:38:10;;;;;;;4.85;3.70;;;;;;;2.67;24.76;102476.62;1770700;81;21184;-79
2022/03/19 13:41:26;;;;;;;6.93;4.20;;;;;;;2.67;24.66;102463.59;1753907;81;21209;-80
2022/03/19 13:44:50;;;;;;;4.70;3.30;;;;;;;2.64;25.58;102455.64;1771114;81;21888;-77
2022/03/19 13:47:57;;;;;;;5.03;2.87;;;;;;;2.64;24.42;102486.24;1771146;81;21196;-78
2022/03/19 13:51:05;;;;;;;6.08;2.90;;;;;;;2.64;24.04;102457.87;1770497;81;21184;-78
2022/03/19 13:54:11;;;;;;;7.08;3.17;;;;;;;2.65;24.04;102470.91;1770981;81;21205;-78
2022/03/19 13:57:20;;;;;;;7.00;2.95;;;;;;;2.62;23.92;102461.58;1770162;81;21236;-79
2022/03/19 14:00:31;;;;;;;6.67;2.90;;;;;;;2.59;24.03;102451.81;1754540;81;21225;-79
2022/03/19 14:03:40;;;;;;;7.05;3.10;;;;;;;2.59;23.98;102449.11;1769822;81;21225;-79
2022/03/19 14:06:50;;;;;;;5.97;2.60;;;;;;;2.56;24.11;102454.64;1771312;81;21236;-78
2022/03/19 14:09:56;;;;;;;7.45;2.95;;;;;;;2.56;24.60;102443.84;1754768;81;21189;-78
2022/03/19 14:13:26;;;;;;;3.67;2.35;;;;;;;2.55;23.97;102457.83;1770067;81;21240;-78
2022/03/19 14:16:32;;;;;;;5.95;2.92;;;;;;;2.56;23.89;102457.34;1771262;81;21188;-79
2022/03/19 14:19:40;;;;;;;4.30;2.50;;;;;;;2.52;24.62;102457.95;1771136;81;21169;-78
2022/03/19 14:22:48;;;;;;;6.97;2.90;;;;;;;2.50;24.57;102458.52;1769655;81;21248;-78
2022/03/19 14:25:53;;;;;;;5.95;3.05;;;;;;;2.49;24.54;102457.22;1771045;81;21799;-78
2022/03/19 14:28:59;;;;;;;6.15;3.47;;;;;;;2.45;24.39;102449.76;1771167;81;21236;-78
2022/03/19 14:35:49;;;;;;;5.92;3.08;;;;;;;2.41;25.04;102444.09;1749260;82;21254;-78
2022/03/19 14:38:57;;;;;;;6.05;3.15;;;;;;;2.39;25.08;102443.75;1748097;82;21762;-77
2022/03/19 14:42:03;;;;;;;7.60;2.95;;;;;;;2.34;24.79;102439.91;1748660;82;21283;-77
2022/03/19 14:45:08;;;;;;;3.70;2.50;;;;;;;2.30;25.09;102451.80;1715947;83;21239;-77
2022/03/19 14:48:15;;;;;;;6.20;3.05;;;;;;;2.25;24.53;102447.08;1716035;83;21212;-77
2022/03/19 14:51:24;;;;;;;4.83;2.90;;;;;;;2.18;23.98;102447.86;1716034;83;21201;-77